createdAt,value
2023-11-15T00:00:33.604Z,0.00
2023-11-15T00:01:34.584Z,0.00
2023-11-15T00:02:35.550Z,0.00
2023-11-15T00:03:33.857Z,0.00
2023-11-15T00:04:33.571Z,0.00
2023-11-15T00:05:33.643Z,0.00
2023-11-15T00:06:33.703Z,0.00
2023-11-15T00:07:33.547Z,0.00
2023-11-15T00:08:33.566Z,0.00
2023-11-15T00:09:33.537Z,0.00
2023-11-15T00:10:33.515Z,0.00
2023-11-15T00:11:33.587Z,0.00
2023-11-15T00:12:33.553Z,0.00
2023-11-15T00:13:33.506Z,0.00
2023-11-15T00:14:33.549Z,0.00
2023-11-15T00:15:33.555Z,0.00
2023-11-15T00:16:33.513Z,0.00
2023-11-15T00:17:33.535Z,0.00
2023-11-15T00:18:33.530Z,0.00
2023-11-15T00:19:33.461Z,0.00
2023-11-15T00:20:33.495Z,0.00
2023-11-15T00:21:33.464Z,0.00
2023-11-15T00:22:33.470Z,0.00
2023-11-15T00:23:33.437Z,0.00
2023-11-15T00:24:33.454Z,0.00
2023-11-15T00:25:33.419Z,0.00
2023-11-15T00:26:33.772Z,0.00
2023-11-15T00:27:33.402Z,0.00
2023-11-15T00:28:33.402Z,0.00
2023-11-15T00:29:33.425Z,0.00
2023-11-15T00:30:33.470Z,0.00
2023-11-15T00:31:33.390Z,0.00
2023-11-15T00:32:33.412Z,0.00
2023-11-15T00:33:33.408Z,0.00
2023-11-15T00:34:33.366Z,0.00
2023-11-15T00:35:33.425Z,0.00
2023-11-15T00:36:33.383Z,0.00
2023-11-15T00:37:33.327Z,0.00
2023-11-15T00:38:33.371Z,0.00
2023-11-15T00:39:33.319Z,0.00
2023-11-15T00:40:33.317Z,0.00
2023-11-15T00:41:33.422Z,0.00
2023-11-15T00:42:33.308Z,0.00
2023-11-15T00:43:33.293Z,0.00
2023-11-15T00:44:33.420Z,0.00
2023-11-15T00:45:33.291Z,0.00
2023-11-15T00:46:33.284Z,0.00
2023-11-15T00:47:33.306Z,0.00
2023-11-15T00:48:33.297Z,0.00
2023-11-15T00:49:33.252Z,0.00
2023-11-15T00:50:33.257Z,0.00
2023-11-15T00:51:33.256Z,0.00
2023-11-15T00:52:33.227Z,0.00
2023-11-15T00:53:33.227Z,0.00
2023-11-15T00:54:33.221Z,0.00
2023-11-15T00:55:33.215Z,0.00
2023-11-15T00:56:33.242Z,0.00
2023-11-15T00:57:33.208Z,0.00
2023-11-15T00:58:33.184Z,0.00
2023-11-15T00:59:33.194Z,0.00
2023-11-15T01:00:33.179Z,0.00
2023-11-15T01:01:33.169Z,0.00
2023-11-15T01:02:33.282Z,0.00
2023-11-15T01:03:33.235Z,0.00
2023-11-15T01:04:33.164Z,0.00
2023-11-15T01:05:33.197Z,0.00
2023-11-15T01:06:33.136Z,0.00
2023-11-15T01:07:33.143Z,0.00
2023-11-15T01:08:33.126Z,0.00
2023-11-15T01:09:33.132Z,0.00
2023-11-15T01:10:33.101Z,0.00
2023-11-15T01:11:33.107Z,0.00
2023-11-15T01:12:33.092Z,0.00
2023-11-15T01:13:34.076Z,0.00
2023-11-15T01:14:33.145Z,0.00
2023-11-15T01:15:33.060Z,0.00
2023-11-15T01:16:33.131Z,0.00
2023-11-15T01:17:33.081Z,0.00
2023-11-15T01:18:33.039Z,0.00
2023-11-15T01:19:33.044Z,0.00
2023-11-15T01:20:33.060Z,0.00
2023-11-15T01:21:33.033Z,0.00
2023-11-15T01:22:33.016Z,0.00
2023-11-15T01:23:33.055Z,0.00
2023-11-15T01:24:33.023Z,0.00
2023-11-15T01:25:32.993Z,0.00
2023-11-15T01:26:33.066Z,0.00
2023-11-15T01:27:32.997Z,0.00
2023-11-15T01:28:32.977Z,0.00
2023-11-15T01:29:32.995Z,0.00
2023-11-15T01:30:32.953Z,0.00
2023-11-15T01:31:32.971Z,0.00
2023-11-15T01:32:32.998Z,0.00
2023-11-15T01:33:33.121Z,0.00
2023-11-15T01:34:32.971Z,0.00
2023-11-15T01:35:32.930Z,0.00
2023-11-15T01:36:32.929Z,0.00
2023-11-15T01:37:32.908Z,0.00
2023-11-15T01:38:32.915Z,0.00
2023-11-15T01:39:32.895Z,0.00
2023-11-15T01:40:32.903Z,0.00
2023-11-15T01:41:32.902Z,0.00
2023-11-15T01:42:32.903Z,0.00
2023-11-15T01:43:32.890Z,0.00
2023-11-15T01:44:32.901Z,0.00
2023-11-15T01:45:32.890Z,0.00
2023-11-15T01:46:32.860Z,0.00
2023-11-15T01:47:32.892Z,0.00
2023-11-15T01:48:32.831Z,0.00
2023-11-15T01:49:32.824Z,0.00
2023-11-15T01:50:32.992Z,0.00
2023-11-15T01:51:32.808Z,0.00
2023-11-15T01:52:32.813Z,0.00
2023-11-15T01:53:32.868Z,0.00
2023-11-15T01:54:32.796Z,0.00
2023-11-15T01:55:32.800Z,0.00
2023-11-15T01:56:32.792Z,0.00
2023-11-15T01:57:32.769Z,0.00
2023-11-15T01:58:32.752Z,0.00
2023-11-15T01:59:32.777Z,0.00
2023-11-15T02:00:32.791Z,0.00
2023-11-15T02:01:32.784Z,0.00
2023-11-15T02:02:32.821Z,0.00
2023-11-15T02:03:32.813Z,0.00
2023-11-15T02:04:32.731Z,0.00
2023-11-15T02:05:32.740Z,0.00
2023-11-15T02:06:32.738Z,0.00
2023-11-15T02:07:32.701Z,0.00
2023-11-15T02:08:32.697Z,0.00
2023-11-15T02:09:32.681Z,0.00
2023-11-15T02:10:32.686Z,0.00
2023-11-15T02:11:32.720Z,0.00
2023-11-15T02:12:32.673Z,0.00
2023-11-15T02:13:32.681Z,0.00
2023-11-15T02:14:32.693Z,0.00
2023-11-15T02:15:32.648Z,0.00
2023-11-15T02:16:32.678Z,0.00
2023-11-15T02:17:32.683Z,0.00
2023-11-15T02:18:32.664Z,0.00
2023-11-15T02:19:32.624Z,0.00
2023-11-15T02:20:32.642Z,0.00
2023-11-15T02:21:32.629Z,0.00
2023-11-15T02:22:32.618Z,0.00
2023-11-15T02:23:32.705Z,0.00
2023-11-15T02:24:32.624Z,0.00
2023-11-15T02:25:32.573Z,0.00
2023-11-15T02:26:33.675Z,0.00
2023-11-15T02:27:32.572Z,0.00
2023-11-15T02:28:32.580Z,0.00
2023-11-15T02:29:32.598Z,0.00
2023-11-15T02:30:32.546Z,0.00
2023-11-15T02:31:32.547Z,0.00
2023-11-15T02:32:32.603Z,0.00
2023-11-15T02:33:32.562Z,0.00
2023-11-15T02:34:32.530Z,0.00
2023-11-15T02:35:32.547Z,0.00
2023-11-15T02:36:32.511Z,0.00
2023-11-15T02:37:32.500Z,0.00
2023-11-15T02:38:32.501Z,0.00
2023-11-15T02:39:32.508Z,0.00
2023-11-15T02:40:32.470Z,0.00
2023-11-15T02:41:32.479Z,0.00
2023-11-15T02:42:32.479Z,0.00
2023-11-15T02:43:32.451Z,0.00
2023-11-15T02:44:32.467Z,0.00
2023-11-15T02:45:32.447Z,0.00
2023-11-15T02:46:32.452Z,0.00
2023-11-15T02:47:32.506Z,0.00
2023-11-15T02:48:32.470Z,0.00
2023-11-15T02:49:32.407Z,0.00
2023-11-15T02:50:32.468Z,0.00
2023-11-15T02:51:32.414Z,0.00
2023-11-15T02:52:32.387Z,0.00
2023-11-15T02:53:32.445Z,0.00
2023-11-15T02:54:32.380Z,0.00
2023-11-15T02:55:32.379Z,0.00
2023-11-15T02:56:32.366Z,0.00
2023-11-15T02:57:32.359Z,0.00
2023-11-15T02:58:32.538Z,0.00
2023-11-15T02:59:32.372Z,0.00
2023-11-15T03:00:32.336Z,0.00
2023-11-15T03:01:32.338Z,0.00
2023-11-15T03:02:32.420Z,0.00
2023-11-15T03:03:32.344Z,0.00
2023-11-15T03:04:32.346Z,0.00
2023-11-15T03:05:32.328Z,0.00
2023-11-15T03:06:32.277Z,0.00
2023-11-15T03:07:32.284Z,0.00
2023-11-15T03:08:32.488Z,0.00
2023-11-15T03:09:32.265Z,0.00
2023-11-15T03:10:32.360Z,0.00
2023-11-15T03:11:32.286Z,0.00
2023-11-15T03:12:32.248Z,0.00
2023-11-15T03:13:32.238Z,0.00
2023-11-15T03:14:32.359Z,0.00
2023-11-15T03:15:32.258Z,0.00
2023-11-15T03:16:32.305Z,0.00
2023-11-15T03:17:32.291Z,0.00
2023-11-15T03:18:32.290Z,0.00
2023-11-15T03:19:32.224Z,0.00
2023-11-15T03:20:32.230Z,0.00
2023-11-15T03:21:32.193Z,0.00
2023-11-15T03:22:32.172Z,0.00
2023-11-15T03:23:32.193Z,0.00
2023-11-15T03:24:32.190Z,0.00
2023-11-15T03:25:32.173Z,0.00
2023-11-15T03:26:32.185Z,0.00
2023-11-15T03:27:32.175Z,0.00
2023-11-15T03:28:32.139Z,0.00
2023-11-15T03:29:32.155Z,0.00
2023-11-15T03:30:32.125Z,0.00
2023-11-15T03:31:32.120Z,0.00
2023-11-15T03:32:32.269Z,0.00
2023-11-15T03:33:32.217Z,0.00
2023-11-15T03:34:32.225Z,0.00
2023-11-15T03:35:32.206Z,0.00
2023-11-15T03:36:32.075Z,0.00
2023-11-15T03:37:32.068Z,0.00
2023-11-15T03:38:32.108Z,0.00
2023-11-15T03:39:32.057Z,0.00
2023-11-15T03:40:32.060Z,0.00
2023-11-15T03:41:32.061Z,0.00
2023-11-15T03:42:32.033Z,0.00
2023-11-15T03:43:32.048Z,0.00
2023-11-15T03:44:32.086Z,0.00
2023-11-15T03:45:32.023Z,0.00
2023-11-15T03:46:32.035Z,0.00
2023-11-15T03:47:32.062Z,0.00
2023-11-15T03:48:32.090Z,0.00
2023-11-15T03:49:32.035Z,0.00
2023-11-15T03:50:32.116Z,0.00
2023-11-15T03:51:31.975Z,0.00
2023-11-15T03:52:32.024Z,0.00
2023-11-15T03:53:32.047Z,0.00
2023-11-15T03:54:31.942Z,0.00
2023-11-15T03:55:32.101Z,0.00
2023-11-15T03:56:31.960Z,0.00
2023-11-15T03:57:31.933Z,0.00
2023-11-15T03:58:32.029Z,0.00
2023-11-15T03:59:31.921Z,0.00
2023-11-15T04:00:31.922Z,0.00
2023-11-15T04:01:32.984Z,0.00
2023-11-15T04:02:32.017Z,0.00
2023-11-15T04:03:32.048Z,0.00
2023-11-15T04:04:32.008Z,0.00
2023-11-15T04:05:31.993Z,0.00
2023-11-15T04:06:31.887Z,0.00
2023-11-15T04:07:31.881Z,0.00
2023-11-15T04:08:31.913Z,0.00
2023-11-15T04:09:31.848Z,0.00
2023-11-15T04:10:31.848Z,0.00
2023-11-15T04:11:31.865Z,0.00
2023-11-15T04:12:31.841Z,0.00
2023-11-15T04:13:31.817Z,0.00
2023-11-15T04:14:31.864Z,0.00
2023-11-15T04:15:31.805Z,0.00
2023-11-15T04:16:31.840Z,0.00
2023-11-15T04:17:31.894Z,0.00
2023-11-15T04:18:31.840Z,0.00
2023-11-15T04:19:31.789Z,0.00
2023-11-15T04:20:31.808Z,0.00
2023-11-15T04:21:31.777Z,0.00
2023-11-15T04:22:31.791Z,0.00
2023-11-15T04:23:31.763Z,0.00
2023-11-15T04:24:31.742Z,0.00
2023-11-15T04:25:31.743Z,0.00
2023-11-15T04:26:31.745Z,0.00
2023-11-15T04:27:31.775Z,0.00
2023-11-15T04:28:31.717Z,0.00
2023-11-15T04:29:31.708Z,0.00
2023-11-15T04:30:31.820Z,0.00
2023-11-15T04:31:31.724Z,0.00
2023-11-15T04:32:31.821Z,0.00
2023-11-15T04:33:31.753Z,0.00
2023-11-15T04:34:31.685Z,0.00
2023-11-15T04:35:31.711Z,0.00
2023-11-15T04:36:31.684Z,0.00
2023-11-15T04:37:31.656Z,0.00
2023-11-15T04:38:31.665Z,0.00
2023-11-15T04:39:31.664Z,0.00
2023-11-15T04:40:31.658Z,0.00
2023-11-15T04:41:31.673Z,0.00
2023-11-15T04:42:31.617Z,0.00
2023-11-15T04:43:31.618Z,0.00
2023-11-15T04:44:31.862Z,0.00
2023-11-15T04:45:31.619Z,0.00
2023-11-15T04:46:31.586Z,0.00
2023-11-15T04:47:31.671Z,0.00
2023-11-15T04:48:31.642Z,0.00
2023-11-15T04:49:31.579Z,0.00
2023-11-15T04:50:31.564Z,0.00
2023-11-15T04:51:31.555Z,0.00
2023-11-15T04:52:32.554Z,0.00
2023-11-15T04:53:31.549Z,0.00
2023-11-15T04:54:31.567Z,0.00
2023-11-15T04:55:31.536Z,0.00
2023-11-15T04:56:31.583Z,0.00
2023-11-15T04:57:31.527Z,0.00
2023-11-15T04:58:31.529Z,0.00
2023-11-15T04:59:31.555Z,0.00
2023-11-15T05:00:31.514Z,0.00
2023-11-15T05:01:31.511Z,0.00
2023-11-15T05:02:31.649Z,0.00
2023-11-15T05:03:31.670Z,0.00
2023-11-15T05:04:31.641Z,0.00
2023-11-15T05:05:31.550Z,0.00
2023-11-15T05:06:31.465Z,0.00
2023-11-15T05:07:31.465Z,0.00
2023-11-15T05:08:31.480Z,0.00
2023-11-15T05:09:31.438Z,0.00
2023-11-15T05:10:31.437Z,0.00
2023-11-15T05:11:31.488Z,0.00
2023-11-15T05:12:31.422Z,0.00
2023-11-15T05:13:31.415Z,0.00
2023-11-15T05:14:31.429Z,0.00
2023-11-15T05:15:31.409Z,0.00
2023-11-15T05:16:31.526Z,0.00
2023-11-15T05:17:31.483Z,0.00
2023-11-15T05:18:31.442Z,0.00
2023-11-15T05:19:31.369Z,0.00
2023-11-15T05:20:31.447Z,0.00
2023-11-15T05:21:31.351Z,0.00
2023-11-15T05:22:32.378Z,0.00
2023-11-15T05:23:31.374Z,0.00
2023-11-15T05:24:31.328Z,0.00
2023-11-15T05:25:31.366Z,0.00
2023-11-15T05:26:31.368Z,0.00
2023-11-15T05:27:31.325Z,0.00
2023-11-15T05:28:31.321Z,0.00
2023-11-15T05:29:31.387Z,0.00
2023-11-15T05:30:31.316Z,0.00
2023-11-15T05:31:31.354Z,0.00
2023-11-15T05:32:31.360Z,0.00
2023-11-15T05:33:31.318Z,0.00
2023-11-15T05:34:31.297Z,0.00
2023-11-15T05:35:31.346Z,0.00
2023-11-15T05:36:31.256Z,0.00
2023-11-15T05:37:31.252Z,0.00
2023-11-15T05:38:31.318Z,0.00
2023-11-15T05:39:31.247Z,0.00
2023-11-15T05:40:31.219Z,0.00
2023-11-15T05:41:31.236Z,0.00
2023-11-15T05:42:31.218Z,0.00
2023-11-15T05:43:31.205Z,0.00
2023-11-15T05:44:31.265Z,0.00
2023-11-15T05:45:31.181Z,0.00
2023-11-15T05:46:31.222Z,0.00
2023-11-15T05:47:31.253Z,0.00
2023-11-15T05:48:31.230Z,0.00
2023-11-15T05:49:31.165Z,0.00
2023-11-15T05:50:31.200Z,0.00
2023-11-15T05:51:31.137Z,0.00
2023-11-15T05:52:31.141Z,0.00
2023-11-15T05:53:31.155Z,0.00
2023-11-15T05:54:31.144Z,0.00
2023-11-15T05:55:31.156Z,0.00
2023-11-15T05:56:31.123Z,0.00
2023-11-15T05:57:31.103Z,0.00
2023-11-15T05:58:31.098Z,0.00
2023-11-15T05:59:31.115Z,0.00
2023-11-15T06:00:31.184Z,0.00
2023-11-15T06:01:31.117Z,0.00
2023-11-15T06:02:31.128Z,0.00
2023-11-15T06:03:31.122Z,0.00
2023-11-15T06:04:31.115Z,0.00
2023-11-15T06:05:31.067Z,0.00
2023-11-15T06:06:31.060Z,0.00
2023-11-15T06:07:31.037Z,0.00
2023-11-15T06:08:31.088Z,0.00
2023-11-15T06:09:31.022Z,0.00
2023-11-15T06:10:31.009Z,0.00
2023-11-15T06:11:31.064Z,0.00
2023-11-15T06:12:30.997Z,0.00
2023-11-15T06:13:30.993Z,0.00
2023-11-15T06:14:31.005Z,0.00
2023-11-15T06:15:30.969Z,0.00
2023-11-15T06:16:31.014Z,0.00
2023-11-15T06:17:31.070Z,0.00
2023-11-15T06:18:30.971Z,0.00
2023-11-15T06:19:30.934Z,0.00
2023-11-15T06:20:31.107Z,0.00
2023-11-15T06:21:30.937Z,0.00
2023-11-15T06:22:30.935Z,0.00
2023-11-15T06:23:30.936Z,0.00
2023-11-15T06:24:30.906Z,0.00
2023-11-15T06:25:30.894Z,0.00
2023-11-15T06:26:30.906Z,0.00
2023-11-15T06:27:30.904Z,0.00
2023-11-15T06:28:30.890Z,0.00
2023-11-15T06:29:30.945Z,0.00
2023-11-15T06:30:30.907Z,0.00
2023-11-15T06:31:30.861Z,0.00
2023-11-15T06:32:30.921Z,0.00
2023-11-15T06:33:31.012Z,0.00
2023-11-15T06:34:30.926Z,0.00
2023-11-15T06:35:30.858Z,0.00
2023-11-15T06:36:30.816Z,0.00
2023-11-15T06:37:30.814Z,0.00
2023-11-15T06:38:30.914Z,0.00
2023-11-15T06:39:30.816Z,0.00
2023-11-15T06:40:30.783Z,0.00
2023-11-15T06:41:30.791Z,0.00
2023-11-15T06:42:30.814Z,0.00
2023-11-15T06:43:30.823Z,0.00
2023-11-15T06:44:30.784Z,0.00
2023-11-15T06:45:30.757Z,0.00
2023-11-15T06:46:30.765Z,0.00
2023-11-15T06:47:30.836Z,0.00
2023-11-15T06:48:30.834Z,0.00
2023-11-15T06:49:30.719Z,0.00
2023-11-15T06:50:30.794Z,0.00
2023-11-15T06:51:30.714Z,0.00
2023-11-15T06:52:30.751Z,5.62
2023-11-15T06:53:30.724Z,0.00
2023-11-15T06:54:30.712Z,5.62
2023-11-15T06:55:30.688Z,5.62
2023-11-15T06:56:30.682Z,5.62
2023-11-15T06:57:30.778Z,5.62
2023-11-15T06:58:30.668Z,5.62
2023-11-15T06:59:30.679Z,5.62
2023-11-15T07:00:30.648Z,5.62
2023-11-15T07:01:30.677Z,5.62
2023-11-15T07:02:30.696Z,5.62
2023-11-15T07:03:30.733Z,5.62
2023-11-15T07:04:30.649Z,5.62
2023-11-15T07:05:30.621Z,11.25
2023-11-15T07:06:30.613Z,11.25
2023-11-15T07:07:30.608Z,16.88
2023-11-15T07:08:30.662Z,16.88
2023-11-15T07:09:30.598Z,22.50
2023-11-15T07:10:30.600Z,28.12
2023-11-15T07:11:30.591Z,33.75
2023-11-15T07:12:30.571Z,39.38
2023-11-15T07:13:30.556Z,39.38
2023-11-15T07:14:30.601Z,50.62
2023-11-15T07:15:30.555Z,56.25
2023-11-15T07:16:30.559Z,56.25
2023-11-15T07:17:31.583Z,56.25
2023-11-15T07:18:30.720Z,56.25
2023-11-15T07:19:30.531Z,61.88
2023-11-15T07:20:30.531Z,61.88
2023-11-15T07:21:30.496Z,56.25
2023-11-15T07:22:30.498Z,56.25
2023-11-15T07:23:30.530Z,56.25
2023-11-15T07:24:30.510Z,50.62
2023-11-15T07:25:30.477Z,45.00
2023-11-15T07:26:30.494Z,39.38
2023-11-15T07:27:30.458Z,33.75
2023-11-15T07:28:30.432Z,28.12
2023-11-15T07:29:31.558Z,28.12
2023-11-15T07:30:30.453Z,33.75
2023-11-15T07:31:30.455Z,45.00
2023-11-15T07:32:30.442Z,50.62
2023-11-15T07:33:30.471Z,39.38
2023-11-15T07:34:30.418Z,39.38
2023-11-15T07:35:30.438Z,50.62
2023-11-15T07:36:30.388Z,56.25
2023-11-15T07:37:30.388Z,56.25
2023-11-15T07:38:30.431Z,45.00
2023-11-15T07:39:30.440Z,39.38
2023-11-15T07:40:30.397Z,28.12
2023-11-15T07:41:30.402Z,28.12
2023-11-15T07:42:30.349Z,33.75
2023-11-15T07:43:30.356Z,39.38
2023-11-15T07:44:30.360Z,45.00
2023-11-15T07:45:30.357Z,45.00
2023-11-15T07:46:30.384Z,45.00
2023-11-15T07:47:30.442Z,45.00
2023-11-15T07:48:30.438Z,45.00
2023-11-15T07:49:30.378Z,50.62
2023-11-15T07:50:30.312Z,61.88
2023-11-15T07:51:30.307Z,67.50
2023-11-15T07:52:30.273Z,78.75
2023-11-15T07:53:30.298Z,78.75
2023-11-15T07:54:30.271Z,61.88
2023-11-15T07:55:30.264Z,50.62
2023-11-15T07:56:30.276Z,50.62
2023-11-15T07:57:30.236Z,56.25
2023-11-15T07:58:30.645Z,56.25
2023-11-15T07:59:30.275Z,56.25
2023-11-15T08:00:30.217Z,50.62
2023-11-15T08:01:30.231Z,45.00
2023-11-15T08:02:30.548Z,45.00
2023-11-15T08:03:30.404Z,45.00
2023-11-15T08:04:30.310Z,45.00
2023-11-15T08:05:30.288Z,50.62
2023-11-15T08:06:30.202Z,56.25
2023-11-15T08:07:30.202Z,61.88
2023-11-15T08:08:30.188Z,67.50
2023-11-15T08:09:30.165Z,73.12
2023-11-15T08:10:30.157Z,67.50
2023-11-15T08:11:30.256Z,67.50
2023-11-15T08:12:30.141Z,67.50
2023-11-15T08:13:30.249Z,78.75
2023-11-15T08:14:30.261Z,90.00
2023-11-15T08:15:30.104Z,106.88
2023-11-15T08:16:30.241Z,112.50
2023-11-15T08:17:30.202Z,106.88
2023-11-15T08:18:30.185Z,112.50
2023-11-15T08:19:30.127Z,112.50
2023-11-15T08:20:30.078Z,106.88
2023-11-15T08:21:30.092Z,106.88
2023-11-15T08:22:30.119Z,106.88
2023-11-15T08:23:30.076Z,112.50
2023-11-15T08:24:30.075Z,123.75
2023-11-15T08:25:30.133Z,135.00
2023-11-15T08:26:30.030Z,140.62
2023-11-15T08:27:30.028Z,157.50
2023-11-15T08:28:30.011Z,185.62
2023-11-15T08:29:31.033Z,213.75
2023-11-15T08:30:30.013Z,225.00
2023-11-15T08:31:30.010Z,225.00
2023-11-15T08:32:29.990Z,225.00
2023-11-15T08:33:30.068Z,326.25
2023-11-15T08:34:29.995Z,275.62
2023-11-15T08:35:29.984Z,196.88
2023-11-15T08:36:30.715Z,191.25
2023-11-15T08:37:29.970Z,174.38
2023-11-15T08:38:29.950Z,180.00
2023-11-15T08:39:29.960Z,202.50
2023-11-15T08:40:29.974Z,219.38
2023-11-15T08:41:30.002Z,247.50
2023-11-15T08:42:29.972Z,208.12
2023-11-15T08:43:29.936Z,185.62
2023-11-15T08:44:29.992Z,168.75
2023-11-15T08:45:29.993Z,157.50
2023-11-15T08:46:29.904Z,140.62
2023-11-15T08:47:30.008Z,146.25
2023-11-15T08:48:29.998Z,135.00
2023-11-15T08:49:29.895Z,101.25
2023-11-15T08:50:29.871Z,84.38
2023-11-15T08:51:29.870Z,73.12
2023-11-15T08:52:29.854Z,67.50
2023-11-15T08:53:29.856Z,67.50
2023-11-15T08:54:29.840Z,73.12
2023-11-15T08:55:29.868Z,78.75
2023-11-15T08:56:29.890Z,78.75
2023-11-15T08:57:30.819Z,84.38
2023-11-15T08:58:29.807Z,84.38
2023-11-15T08:59:29.873Z,78.75
2023-11-15T09:00:29.898Z,73.12
2023-11-15T09:01:29.804Z,67.50
2023-11-15T09:02:29.831Z,61.88
2023-11-15T09:03:29.965Z,73.12
2023-11-15T09:04:29.828Z,95.62
2023-11-15T09:05:29.786Z,135.00
2023-11-15T09:06:29.815Z,624.38
2023-11-15T09:07:30.774Z,157.50
2023-11-15T09:08:29.751Z,90.00
2023-11-15T09:09:29.742Z,61.88
2023-11-15T09:10:29.772Z,50.62
2023-11-15T09:11:29.738Z,50.62
2023-11-15T09:12:29.725Z,61.88
2023-11-15T09:13:29.761Z,78.75
2023-11-15T09:14:29.721Z,112.50
2023-11-15T09:15:29.708Z,140.62
2023-11-15T09:16:29.742Z,151.88
2023-11-15T09:17:29.726Z,225.00
2023-11-15T09:18:29.778Z,292.50
2023-11-15T09:19:29.685Z,489.38
2023-11-15T09:20:29.675Z,793.12
2023-11-15T09:21:29.664Z,855.00
2023-11-15T09:22:29.665Z,1985.62
2023-11-15T09:23:30.939Z,1411.88
2023-11-15T09:24:29.656Z,253.12
2023-11-15T09:25:29.641Z,180.00
2023-11-15T09:26:29.660Z,140.62
2023-11-15T09:27:29.723Z,112.50
2023-11-15T09:28:29.670Z,101.25
2023-11-15T09:29:29.629Z,101.25
2023-11-15T09:30:29.596Z,106.88
2023-11-15T09:31:29.589Z,112.50
2023-11-15T09:32:29.626Z,106.88
2023-11-15T09:33:31.245Z,101.25
2023-11-15T09:34:30.640Z,95.62
2023-11-15T09:35:29.793Z,90.00
2023-11-15T09:36:29.559Z,90.00
2023-11-15T09:37:29.547Z,95.62
2023-11-15T09:38:29.610Z,101.25
2023-11-15T09:39:29.533Z,118.12
2023-11-15T09:40:29.537Z,135.00
2023-11-15T09:41:29.521Z,163.12
2023-11-15T09:42:29.565Z,168.75
2023-11-15T09:43:29.533Z,168.75
2023-11-15T09:44:29.495Z,163.12
2023-11-15T09:45:29.511Z,157.50
2023-11-15T09:46:29.565Z,151.88
2023-11-15T09:47:29.532Z,168.75
2023-11-15T09:48:29.641Z,225.00
2023-11-15T09:49:29.567Z,1760.62
2023-11-15T09:50:29.464Z,281.25
2023-11-15T09:51:29.440Z,281.25
2023-11-15T09:53:32.026Z,309.38
2023-11-15T09:54:34.938Z,309.38
2023-11-15T09:55:30.454Z,298.12
2023-11-15T09:56:30.841Z,286.88
2023-11-15T09:57:29.412Z,303.75
2023-11-15T09:58:29.421Z,376.88
2023-11-15T09:59:29.413Z,303.75
2023-11-15T10:00:29.415Z,331.88
2023-11-15T10:01:29.441Z,331.88
2023-11-15T10:02:29.442Z,219.38
2023-11-15T10:03:29.434Z,174.38
2023-11-15T10:04:29.367Z,151.88
2023-11-15T10:05:29.358Z,146.25
2023-11-15T10:06:29.343Z,146.25
2023-11-15T10:07:29.331Z,157.50
2023-11-15T10:08:29.348Z,174.38
2023-11-15T10:09:29.321Z,202.50
2023-11-15T10:10:29.338Z,270.00
2023-11-15T10:11:29.322Z,303.75
2023-11-15T10:12:29.313Z,405.00
2023-11-15T10:13:30.391Z,568.12
2023-11-15T10:14:29.313Z,472.50
2023-11-15T10:15:29.297Z,703.12
2023-11-15T10:16:29.284Z,438.75
2023-11-15T10:17:29.320Z,331.88
2023-11-15T10:18:29.406Z,309.38
2023-11-15T10:19:29.274Z,343.12
2023-11-15T10:20:29.258Z,388.12
2023-11-15T10:21:29.261Z,528.75
2023-11-15T10:22:29.253Z,630.00
2023-11-15T10:23:29.229Z,1676.25
2023-11-15T10:24:29.241Z,1383.75
2023-11-15T10:25:29.226Z,421.88
2023-11-15T10:26:29.211Z,405.00
2023-11-15T10:27:29.196Z,427.50
2023-11-15T10:28:29.194Z,461.25
2023-11-15T10:29:29.225Z,489.38
2023-11-15T10:30:29.179Z,990.00
2023-11-15T10:31:29.189Z,433.12
2023-11-15T10:32:29.183Z,427.50
2023-11-15T10:33:29.201Z,517.50
2023-11-15T10:34:34.011Z,1209.38
2023-11-15T10:35:31.144Z,1186.88
2023-11-15T10:36:29.149Z,517.50
2023-11-15T10:37:29.707Z,1935.00
2023-11-15T10:38:29.130Z,1237.50
2023-11-15T10:39:29.157Z,2328.75
2023-11-15T10:40:29.115Z,1704.38
2023-11-15T10:41:29.150Z,2126.25
2023-11-15T10:42:29.148Z,2424.38
2023-11-15T10:43:29.096Z,1102.50
2023-11-15T10:44:29.091Z,2171.25
2023-11-15T10:45:29.359Z,1203.75
2023-11-15T10:46:29.072Z,2638.12
2023-11-15T10:47:29.090Z,2238.75
2023-11-15T10:48:29.083Z,720.00
2023-11-15T10:49:29.049Z,1366.88
2023-11-15T10:50:29.031Z,1170.00
2023-11-15T10:51:29.051Z,1625.62
2023-11-15T10:52:29.019Z,1625.62
2023-11-15T10:53:29.031Z,2424.38
2023-11-15T10:54:29.839Z,2019.38
2023-11-15T10:55:30.792Z,697.50
2023-11-15T10:56:29.008Z,2368.12
2023-11-15T10:57:29.494Z,545.62
2023-11-15T10:58:29.061Z,511.88
2023-11-15T10:59:28.991Z,450.00
2023-11-15T11:00:28.967Z,590.62
2023-11-15T11:01:29.025Z,495.00
2023-11-15T11:02:29.045Z,438.75
2023-11-15T11:03:29.157Z,579.38
2023-11-15T11:04:29.067Z,376.88
2023-11-15T11:05:28.957Z,320.62
2023-11-15T11:06:28.921Z,376.88
2023-11-15T11:07:28.923Z,371.25
2023-11-15T11:08:28.934Z,303.75
2023-11-15T11:09:28.927Z,298.12
2023-11-15T11:10:30.073Z,348.75
2023-11-15T11:11:28.912Z,337.50
2023-11-15T11:12:28.910Z,331.88
2023-11-15T11:13:28.879Z,315.00
2023-11-15T11:14:29.065Z,320.62
2023-11-15T11:15:28.936Z,331.88
2023-11-15T11:16:34.582Z,343.12
2023-11-15T11:17:30.899Z,354.38
2023-11-15T11:18:28.992Z,365.62
2023-11-15T11:19:28.828Z,534.38
2023-11-15T11:20:28.833Z,2103.75
2023-11-15T11:21:28.838Z,2205.00
2023-11-15T11:22:28.847Z,2565.00
2023-11-15T11:23:29.638Z,967.50
2023-11-15T11:24:28.806Z,2244.38
2023-11-15T11:25:29.797Z,2261.25
2023-11-15T11:26:28.808Z,1603.12
2023-11-15T11:27:28.862Z,1861.88
2023-11-15T11:28:28.771Z,1822.50
2023-11-15T11:29:28.764Z,489.38
2023-11-15T11:30:28.791Z,410.62
2023-11-15T11:31:28.775Z,1108.12
2023-11-15T11:32:28.912Z,393.75
2023-11-15T11:33:28.793Z,1828.12
2023-11-15T11:34:28.740Z,630.00
2023-11-15T11:35:28.730Z,506.25
2023-11-15T11:36:28.729Z,500.62
2023-11-15T11:37:28.723Z,466.88
2023-11-15T11:38:28.705Z,421.88
2023-11-15T11:39:28.693Z,388.12
2023-11-15T11:40:28.689Z,388.12
2023-11-15T11:41:28.681Z,2176.88
2023-11-15T11:42:28.725Z,855.00
2023-11-15T11:43:28.696Z,1468.12
2023-11-15T11:44:28.675Z,2272.50
2023-11-15T11:45:28.654Z,1175.62
2023-11-15T11:46:28.660Z,382.50
2023-11-15T11:47:28.658Z,309.38
2023-11-15T11:48:28.746Z,416.25
2023-11-15T11:49:28.687Z,410.62
2023-11-15T11:50:28.622Z,500.62
2023-11-15T11:51:28.615Z,393.75
2023-11-15T11:52:28.716Z,382.50
2023-11-15T11:53:28.612Z,843.75
2023-11-15T11:54:28.636Z,410.62
2023-11-15T11:55:28.591Z,360.00
2023-11-15T11:56:28.581Z,337.50
2023-11-15T11:57:28.560Z,264.38
2023-11-15T11:58:28.624Z,219.38
2023-11-15T11:59:28.601Z,213.75
2023-11-15T12:00:28.568Z,253.12
2023-11-15T12:01:28.549Z,309.38
2023-11-15T12:02:28.536Z,320.62
2023-11-15T12:03:28.713Z,270.00
2023-11-15T12:04:28.804Z,241.88
2023-11-15T12:05:28.529Z,225.00
2023-11-15T12:06:28.521Z,225.00
2023-11-15T12:07:28.493Z,236.25
2023-11-15T12:08:28.486Z,275.62
2023-11-15T12:09:28.489Z,292.50
2023-11-15T12:10:28.501Z,230.62
2023-11-15T12:11:28.478Z,202.50
2023-11-15T12:12:28.478Z,191.25
2023-11-15T12:13:28.457Z,185.62
2023-11-15T12:14:28.456Z,196.88
2023-11-15T12:15:28.719Z,225.00
2023-11-15T12:16:28.480Z,270.00
2023-11-15T12:17:28.441Z,410.62
2023-11-15T12:18:28.541Z,748.12
2023-11-15T12:19:28.414Z,810.00
2023-11-15T12:20:28.432Z,270.00
2023-11-15T12:21:28.401Z,253.12
2023-11-15T12:22:28.396Z,264.38
2023-11-15T12:23:28.384Z,298.12
2023-11-15T12:24:28.421Z,292.50
2023-11-15T12:25:28.393Z,281.25
2023-11-15T12:26:28.364Z,241.88
2023-11-15T12:27:28.362Z,208.12
2023-11-15T12:28:28.350Z,191.25
2023-11-15T12:29:28.375Z,168.75
2023-11-15T12:30:28.377Z,135.00
2023-11-15T12:31:28.334Z,112.50
2023-11-15T12:32:28.322Z,90.00
2023-11-15T12:33:28.410Z,78.75
2023-11-15T12:34:28.379Z,67.50
2023-11-15T12:35:28.306Z,61.88
2023-11-15T12:36:28.287Z,61.88
2023-11-15T12:37:28.299Z,67.50
2023-11-15T12:38:28.294Z,84.38
2023-11-15T12:39:28.269Z,90.00
2023-11-15T12:40:28.299Z,95.62
2023-11-15T12:41:28.256Z,112.50
2023-11-15T12:42:28.258Z,129.38
2023-11-15T12:43:28.271Z,157.50
2023-11-15T12:44:28.252Z,202.50
2023-11-15T12:45:28.305Z,230.62
2023-11-15T12:46:28.250Z,247.50
2023-11-15T12:47:28.282Z,225.00
2023-11-15T12:48:28.282Z,225.00
2023-11-15T12:49:28.402Z,236.25
2023-11-15T12:50:28.198Z,219.38
2023-11-15T12:51:28.183Z,202.50
2023-11-15T12:52:29.187Z,208.12
2023-11-15T12:53:28.202Z,236.25
2023-11-15T12:54:28.189Z,275.62
2023-11-15T12:55:28.178Z,298.12
2023-11-15T12:56:28.155Z,511.88
2023-11-15T12:57:29.115Z,793.12
2023-11-15T12:58:28.128Z,815.62